createdAt,value
2022-11-27T00:00:58.061Z,67.153
2022-11-27T00:16:00.514Z,67.127
2022-11-27T00:31:03.198Z,66.816
2022-11-27T00:46:05.836Z,67.428
2022-11-27T01:01:08.454Z,67.489
2022-11-27T01:16:10.926Z,66.444
2022-11-27T01:31:13.757Z,67.67
2022-11-27T01:46:16.645Z,66.834
2022-11-27T02:01:19.205Z,66.964
2022-11-27T02:16:21.847Z,66.46
2022-11-27T02:31:24.321Z,67.411
2022-11-27T02:46:26.676Z,67.403
2022-11-27T03:01:29.178Z,66.455
2022-11-27T03:16:32.070Z,66.299
2022-11-27T03:31:34.633Z,64.407
2022-11-27T03:46:37.285Z,64.112
2022-11-27T04:01:40.019Z,66.192
2022-11-27T04:16:42.573Z,65.756
2022-11-27T04:31:45.108Z,65.048
2022-11-27T04:46:47.635Z,66.064
2022-11-27T05:01:50.267Z,66.702
2022-11-27T05:16:52.874Z,65.701
2022-11-27T05:31:55.388Z,66.045
2022-11-27T05:46:58.279Z,65.973
2022-11-27T06:02:00.780Z,64.731
2022-11-27T06:17:03.123Z,66.291
2022-11-27T06:32:05.525Z,65.86
2022-11-27T06:47:08.113Z,65.796
2022-11-27T07:02:10.610Z,63.912
2022-11-27T07:17:13.065Z,64.064
2022-11-27T07:32:15.761Z,65.312
2022-11-27T07:47:18.082Z,66.975
2022-11-27T08:02:20.343Z,65.364
2022-11-27T08:17:22.689Z,65.205
2022-11-27T08:32:25.261Z,65.059
2022-11-27T08:47:27.743Z,64.523
2022-11-27T09:02:30.184Z,63.941
2022-11-27T09:17:33.116Z,65.438
2022-11-27T09:32:35.425Z,67.037
2022-11-27T09:47:41.451Z,65.915
2022-11-27T10:02:45.001Z,67.611
2022-11-27T10:17:47.499Z,67.92
2022-11-27T10:32:56.216Z,65.075
2022-11-27T10:47:58.848Z,64.161
2022-11-27T11:03:01.375Z,65.385
2022-11-27T11:18:03.917Z,65.572
2022-11-27T11:33:06.617Z,64.906
2022-11-27T11:48:09.317Z,65.609
2022-11-27T12:03:11.785Z,66.376
2022-11-27T12:18:14.498Z,67.13
2022-11-27T12:33:17.254Z,65.695
2022-11-27T12:48:20.310Z,66.94
2022-11-27T13:03:22.852Z,68.564
2022-11-27T13:18:25.574Z,69.021
2022-11-27T13:33:28.106Z,68.736
2022-11-27T13:48:30.458Z,67.607
2022-11-27T14:03:33.222Z,70.45
2022-11-27T14:18:35.721Z,68.87
2022-11-27T14:34:13.687Z,68.85
2022-11-27T14:49:17.725Z,68.866
2022-11-27T15:04:20.685Z,71.924
2022-11-27T15:19:23.132Z,73.35
2022-11-27T15:34:25.524Z,73.032
2022-11-27T15:49:28.134Z,73.806
2022-11-27T16:04:30.795Z,73.55
2022-11-27T16:19:33.315Z,72.955
2022-11-27T16:34:35.872Z,66.626
2022-11-27T16:49:38.259Z,74.813
2022-11-27T17:04:41.103Z,57.17
2022-11-27T17:19:44.092Z,53.065
2022-11-27T17:34:46.832Z,55.863
2022-11-27T17:49:49.382Z,54.031
2022-11-27T18:04:51.735Z,51.788
2022-11-27T18:19:53.987Z,50.867
2022-11-27T18:34:56.258Z,51.524
2022-11-27T18:49:58.537Z,49.717
2022-11-27T19:05:01.546Z,47.205
2022-11-27T19:20:03.846Z,46.278
2022-11-27T19:35:07.424Z,45.636
2022-11-27T19:50:10.002Z,44.572
2022-11-27T20:05:12.215Z,43.219
2022-11-27T20:20:14.448Z,42.131
2022-11-27T20:35:16.663Z,43.639
2022-11-27T20:50:19.135Z,41.022
2022-11-27T21:05:21.411Z,43.676
2022-11-27T21:20:23.680Z,42.961
2022-11-27T21:35:30.234Z,45.575
2022-11-27T21:50:34.110Z,47.435
2022-11-27T22:05:36.372Z,43.763
2022-11-27T22:20:38.819Z,44.707
2022-11-27T22:35:41.045Z,46.562
2022-11-27T22:50:43.319Z,47.323
2022-11-27T23:05:45.691Z,50.02
2022-11-27T23:20:47.992Z,49.062
2022-11-27T23:35:49.996Z,50.424
2022-11-27T23:50:52.652Z,52.021
